sensor_id;sensor_type;location;lat;lon;timestamp;temperature;humidity
52919;DHT22;38793;52.690;6.812;2023-04-02T00:06:32;6.10;99.90
52919;DHT22;38793;52.690;6.812;2023-04-02T00:11:38;6.00;99.90
52919;DHT22;38793;52.690;6.812;2023-04-02T00:14:17;6.00;99.90
52919;DHT22;38793;52.690;6.812;2023-04-02T00:16:43;6.00;99.90
52919;DHT22;38793;52.690;6.812;2023-04-02T00:19:17;5.90;99.90
52919;DHT22;38793;52.690;6.812;2023-04-02T00:21:44;5.90;99.90
52919;DHT22;38793;52.690;6.812;2023-04-02T00:24:16;5.90;99.90
52919;DHT22;38793;52.690;6.812;2023-04-02T00:26:54;5.80;99.90
52919;DHT22;38793;52.690;6.812;2023-04-02T00:29:20;5.80;99.90
52919;DHT22;38793;52.690;6.812;2023-04-02T00:31:52;5.80;99.90
52919;DHT22;38793;52.690;6.812;2023-04-02T00:34:27;5.70;99.90
52919;DHT22;38793;52.690;6.812;2023-04-02T00:36:55;5.70;99.90
52919;DHT22;38793;52.690;6.812;2023-04-02T00:39:24;5.70;99.90
52919;DHT22;38793;52.690;6.812;2023-04-02T00:41:52;5.70;99.90
52919;DHT22;38793;52.690;6.812;2023-04-02T00:44:31;5.70;99.90
52919;DHT22;38793;52.690;6.812;2023-04-02T00:47:03;5.70;99.90
52919;DHT22;38793;52.690;6.812;2023-04-02T00:49:38;5.70;99.90
52919;DHT22;38793;52.690;6.812;2023-04-02T00:52:13;5.70;99.90
52919;DHT22;38793;52.690;6.812;2023-04-02T00:54:46;5.60;99.90
52919;DHT22;38793;52.690;6.812;2023-04-02T00:57:19;5.60;99.90
52919;DHT22;38793;52.690;6.812;2023-04-02T01:00:00;5.50;99.90
52919;DHT22;38793;52.690;6.812;2023-04-02T01:02:33;5.50;99.90
52919;DHT22;38793;52.690;6.812;2023-04-02T01:05:20;5.40;99.90
52919;DHT22;38793;52.690;6.812;2023-04-02T01:13:21;5.30;99.90
52919;DHT22;38793;52.690;6.812;2023-04-02T01:16:31;5.30;99.90
52919;DHT22;38793;52.690;6.812;2023-04-02T01:22:00;5.20;99.90
52919;DHT22;38793;52.690;6.812;2023-04-02T01:24:33;5.10;99.90
52919;DHT22;38793;52.690;6.812;2023-04-02T01:27:21;5.10;99.90
52919;DHT22;38793;52.690;6.812;2023-04-02T01:29:52;5.10;99.90
52919;DHT22;38793;52.690;6.812;2023-04-02T01:32:22;5.10;99.90
52919;DHT22;38793;52.690;6.812;2023-04-02T01:34:49;5.10;99.90
52919;DHT22;38793;52.690;6.812;2023-04-02T01:43:05;5.00;99.90
52919;DHT22;38793;52.690;6.812;2023-04-02T01:45:32;5.00;99.90
52919;DHT22;38793;52.690;6.812;2023-04-02T01:48:01;5.00;99.90
52919;DHT22;38793;52.690;6.812;2023-04-02T01:50:33;4.90;99.90
52919;DHT22;38793;52.690;6.812;2023-04-02T01:53:07;4.80;99.90
52919;DHT22;38793;52.690;6.812;2023-04-02T01:58:05;4.70;99.90
52919;DHT22;38793;52.690;6.812;2023-04-02T02:00:32;4.70;99.90
52919;DHT22;38793;52.690;6.812;2023-04-02T02:02:59;4.70;99.90
52919;DHT22;38793;52.690;6.812;2023-04-02T02:05:26;4.60;99.90
52919;DHT22;38793;52.690;6.812;2023-04-02T02:07:54;4.60;99.90
52919;DHT22;38793;52.690;6.812;2023-04-02T02:10:34;4.60;99.90
52919;DHT22;38793;52.690;6.812;2023-04-02T02:13:00;4.50;99.90
52919;DHT22;38793;52.690;6.812;2023-04-02T02:15:26;4.40;99.90
52919;DHT22;38793;52.690;6.812;2023-04-02T02:18:02;4.40;99.90
52919;DHT22;38793;52.690;6.812;2023-04-02T02:20:28;4.30;99.90
52919;DHT22;38793;52.690;6.812;2023-04-02T02:22:55;4.30;99.90
52919;DHT22;38793;52.690;6.812;2023-04-02T02:25:25;4.30;99.90
52919;DHT22;38793;52.690;6.812;2023-04-02T02:30:46;4.20;99.90
52919;DHT22;38793;52.690;6.812;2023-04-02T02:33:31;4.10;99.90
52919;DHT22;38793;52.690;6.812;2023-04-02T02:36:13;4.10;99.90
52919;DHT22;38793;52.690;6.812;2023-04-02T02:38:57;4.00;99.90
52919;DHT22;38793;52.690;6.812;2023-04-02T02:46:40;3.90;99.90
52919;DHT22;38793;52.690;6.812;2023-04-02T02:49:14;3.80;99.90
52919;DHT22;38793;52.690;6.812;2023-04-02T02:51:53;3.80;99.90
52919;DHT22;38793;52.690;6.812;2023-04-02T02:54:21;3.80;99.90
52919;DHT22;38793;52.690;6.812;2023-04-02T02:56:55;3.70;99.90
52919;DHT22;38793;52.690;6.812;2023-04-02T02:59:22;3.60;99.90
52919;DHT22;38793;52.690;6.812;2023-04-02T03:01:48;3.60;99.90
52919;DHT22;38793;52.690;6.812;2023-04-02T03:04:20;3.60;99.90
52919;DHT22;38793;52.690;6.812;2023-04-02T03:06:51;3.50;99.90
52919;DHT22;38793;52.690;6.812;2023-04-02T03:09:38;3.50;99.90
52919;DHT22;38793;52.690;6.812;2023-04-02T03:15:01;3.40;99.90
52919;DHT22;38793;52.690;6.812;2023-04-02T03:20:20;3.40;99.90
52919;DHT22;38793;52.690;6.812;2023-04-02T03:22:57;3.40;99.90
52919;DHT22;38793;52.690;6.812;2023-04-02T03:25:42;3.30;99.90
52919;DHT22;38793;52.690;6.812;2023-04-02T03:28:18;3.20;99.90
52919;DHT22;38793;52.690;6.812;2023-04-02T03:31:12;3.20;99.90
52919;DHT22;38793;52.690;6.812;2023-04-02T03:33:49;3.10;99.90
52919;DHT22;38793;52.690;6.812;2023-04-02T03:36:29;3.10;99.90
52919;DHT22;38793;52.690;6.812;2023-04-02T03:39:00;3.00;99.90
52919;DHT22;38793;52.690;6.812;2023-04-02T03:41:46;3.00;99.90
52919;DHT22;38793;52.690;6.812;2023-04-02T03:44:32;2.90;99.90
52919;DHT22;38793;52.690;6.812;2023-04-02T03:47:35;2.90;99.90
52919;DHT22;38793;52.690;6.812;2023-04-02T03:50:18;2.90;99.90
52919;DHT22;38793;52.690;6.812;2023-04-02T03:52:46;2.80;99.90
52919;DHT22;38793;52.690;6.812;2023-04-02T03:55:21;2.80;99.90
52919;DHT22;38793;52.690;6.812;2023-04-02T04:00:30;2.80;99.90
52919;DHT22;38793;52.690;6.812;2023-04-02T04:03:04;2.80;99.90
52919;DHT22;38793;52.690;6.812;2023-04-02T04:05:37;2.80;99.90
52919;DHT22;38793;52.690;6.812;2023-04-02T04:08:06;2.70;99.90
52919;DHT22;38793;52.690;6.812;2023-04-02T04:10:34;2.70;99.90
52919;DHT22;38793;52.690;6.812;2023-04-02T04:13:08;2.70;99.90
52919;DHT22;38793;52.690;6.812;2023-04-02T04:19:13;2.70;99.90
52919;DHT22;38793;52.690;6.812;2023-04-02T04:21:24;2.70;99.90
52919;DHT22;38793;52.690;6.812;2023-04-02T04:24:11;2.70;99.90
52919;DHT22;38793;52.690;6.812;2023-04-02T04:26:46;2.70;99.90
52919;DHT22;38793;52.690;6.812;2023-04-02T04:29:44;2.70;99.90
52919;DHT22;38793;52.690;6.812;2023-04-02T04:34:45;2.80;99.90
52919;DHT22;38793;52.690;6.812;2023-04-02T04:37:33;2.80;99.90
52919;DHT22;38793;52.690;6.812;2023-04-02T04:40:15;2.70;99.90
52919;DHT22;38793;52.690;6.812;2023-04-02T04:42:44;2.70;99.90
52919;DHT22;38793;52.690;6.812;2023-04-02T04:45:22;2.70;99.90
52919;DHT22;38793;52.690;6.812;2023-04-02T04:47:55;2.70;99.90
52919;DHT22;38793;52.690;6.812;2023-04-02T04:50:36;2.70;99.90
52919;DHT22;38793;52.690;6.812;2023-04-02T04:53:15;2.80;99.90
52919;DHT22;38793;52.690;6.812;2023-04-02T04:55:46;2.70;99.90
52919;DHT22;38793;52.690;6.812;2023-04-02T04:58:32;2.70;99.90
52919;DHT22;38793;52.690;6.812;2023-04-02T05:01:06;2.70;99.90
52919;DHT22;38793;52.690;6.812;2023-04-02T05:03:53;2.70;99.90
52919;DHT22;38793;52.690;6.812;2023-04-02T05:09:54;2.70;99.90
52919;DHT22;38793;52.690;6.812;2023-04-02T05:12:06;2.70;99.90
52919;DHT22;38793;52.690;6.812;2023-04-02T05:15:40;2.70;99.90
52919;DHT22;38793;52.690;6.812;2023-04-02T05:17:53;2.70;99.90
52919;DHT22;38793;52.690;6.812;2023-04-02T05:20:40;2.70;99.90
52919;DHT22;38793;52.690;6.812;2023-04-02T05:23:18;2.60;99.90
52919;DHT22;38793;52.690;6.812;2023-04-02T05:26:01;2.60;99.90
52919;DHT22;38793;52.690;6.812;2023-04-02T05:28:39;2.60;99.90
52919;DHT22;38793;52.690;6.812;2023-04-02T05:31:14;2.60;99.90
52919;DHT22;38793;52.690;6.812;2023-04-02T05:33:48;2.60;99.90
52919;DHT22;38793;52.690;6.812;2023-04-02T05:36:26;2.60;99.90
52919;DHT22;38793;52.690;6.812;2023-04-02T05:38:54;2.60;99.90
52919;DHT22;38793;52.690;6.812;2023-04-02T05:41:32;2.60;99.90
52919;DHT22;38793;52.690;6.812;2023-04-02T05:44:23;2.60;99.90
52919;DHT22;38793;52.690;6.812;2023-04-02T05:46:56;2.50;99.90
52919;DHT22;38793;52.690;6.812;2023-04-02T05:49:27;2.60;99.90
52919;DHT22;38793;52.690;6.812;2023-04-02T05:51:59;2.60;99.90
52919;DHT22;38793;52.690;6.812;2023-04-02T05:54:41;2.60;99.90
52919;DHT22;38793;52.690;6.812;2023-04-02T05:57:13;2.50;99.90
52919;DHT22;38793;52.690;6.812;2023-04-02T05:59:43;2.60;99.90
52919;DHT22;38793;52.690;6.812;2023-04-02T06:02:28;2.60;99.90
52919;DHT22;38793;52.690;6.812;2023-04-02T06:05:02;2.60;99.90
52919;DHT22;38793;52.690;6.812;2023-04-02T06:07:48;2.70;99.90
52919;DHT22;38793;52.690;6.812;2023-04-02T06:10:21;2.70;99.90
52919;DHT22;38793;52.690;6.812;2023-04-02T06:12:53;2.70;99.90
52919;DHT22;38793;52.690;6.812;2023-04-02T06:15:21;2.80;99.90
52919;DHT22;38793;52.690;6.812;2023-04-02T06:18:05;2.80;99.90
52919;DHT22;38793;52.690;6.812;2023-04-02T06:20:32;2.80;99.90
52919;DHT22;38793;52.690;6.812;2023-04-02T06:23:12;2.80;99.90
52919;DHT22;38793;52.690;6.812;2023-04-02T06:25:47;2.80;99.90
52919;DHT22;38793;52.690;6.812;2023-04-02T06:28:20;2.80;99.90
52919;DHT22;38793;52.690;6.812;2023-04-02T06:30:52;2.80;99.90
52919;DHT22;38793;52.690;6.812;2023-04-02T06:33:19;2.80;99.90
52919;DHT22;38793;52.690;6.812;2023-04-02T06:35:45;2.90;99.90
52919;DHT22;38793;52.690;6.812;2023-04-02T06:38:17;2.90;99.90
52919;DHT22;38793;52.690;6.812;2023-04-02T06:43:36;3.10;99.90
52919;DHT22;38793;52.690;6.812;2023-04-02T06:46:25;3.20;99.90
52919;DHT22;38793;52.690;6.812;2023-04-02T06:48:58;3.20;99.90
52919;DHT22;38793;52.690;6.812;2023-04-02T06:51:26;3.20;99.90
52919;DHT22;38793;52.690;6.812;2023-04-02T06:53:53;3.20;99.90
52919;DHT22;38793;52.690;6.812;2023-04-02T06:59:03;3.30;99.90
52919;DHT22;38793;52.690;6.812;2023-04-02T07:01:36;3.20;99.90
52919;DHT22;38793;52.690;6.812;2023-04-02T07:04:02;3.30;99.90
52919;DHT22;38793;52.690;6.812;2023-04-02T07:06:28;3.30;99.90
52919;DHT22;38793;52.690;6.812;2023-04-02T07:08:54;3.40;99.90
52919;DHT22;38793;52.690;6.812;2023-04-02T07:11:20;3.40;99.90
52919;DHT22;38793;52.690;6.812;2023-04-02T07:13:49;3.50;99.90
52919;DHT22;38793;52.690;6.812;2023-04-02T07:16:18;3.60;99.90
52919;DHT22;38793;52.690;6.812;2023-04-02T07:18:44;3.70;99.90
52919;DHT22;38793;52.690;6.812;2023-04-02T07:21:10;3.70;99.90
52919;DHT22;38793;52.690;6.812;2023-04-02T07:23:36;3.80;99.90
52919;DHT22;38793;52.690;6.812;2023-04-02T07:26:03;3.90;99.90
52919;DHT22;38793;52.690;6.812;2023-04-02T07:28:28;3.90;99.90
52919;DHT22;38793;52.690;6.812;2023-04-02T07:30:54;4.00;99.90
52919;DHT22;38793;52.690;6.812;2023-04-02T07:33:26;4.00;99.90
52919;DHT22;38793;52.690;6.812;2023-04-02T07:35:53;4.10;99.90
52919;DHT22;38793;52.690;6.812;2023-04-02T07:38:19;4.20;99.90
52919;DHT22;38793;52.690;6.812;2023-04-02T07:40:45;4.10;99.90
52919;DHT22;38793;52.690;6.812;2023-04-02T07:43:11;4.10;99.90
52919;DHT22;38793;52.690;6.812;2023-04-02T07:45:36;4.20;99.90
52919;DHT22;38793;52.690;6.812;2023-04-02T07:48:10;4.20;99.90
52919;DHT22;38793;52.690;6.812;2023-04-02T07:50:36;4.30;99.90
52919;DHT22;38793;52.690;6.812;2023-04-02T07:53:02;4.40;99.90
52919;DHT22;38793;52.690;6.812;2023-04-02T07:55:27;4.40;99.90
52919;DHT22;38793;52.690;6.812;2023-04-02T07:57:56;4.40;99.90
52919;DHT22;38793;52.690;6.812;2023-04-02T08:00:22;4.40;99.90
52919;DHT22;38793;52.690;6.812;2023-04-02T08:02:49;4.50;99.90
52919;DHT22;38793;52.690;6.812;2023-04-02T08:05:15;4.50;99.90
52919;DHT22;38793;52.690;6.812;2023-04-02T08:07:43;4.50;99.90
52919;DHT22;38793;52.690;6.812;2023-04-02T08:10:10;4.50;99.90
52919;DHT22;38793;52.690;6.812;2023-04-02T08:12:36;4.60;99.90
52919;DHT22;38793;52.690;6.812;2023-04-02T08:15:02;4.60;99.90
52919;DHT22;38793;52.690;6.812;2023-04-02T08:17:30;4.60;99.90
52919;DHT22;38793;52.690;6.812;2023-04-02T08:19:57;4.60;99.90
52919;DHT22;38793;52.690;6.812;2023-04-02T08:22:26;4.70;99.90
52919;DHT22;38793;52.690;6.812;2023-04-02T08:24:52;4.90;99.90
52919;DHT22;38793;52.690;6.812;2023-04-02T08:27:17;5.00;99.90
52919;DHT22;38793;52.690;6.812;2023-04-02T08:29:43;5.30;99.90
52919;DHT22;38793;52.690;6.812;2023-04-02T08:32:11;5.60;99.90
52919;DHT22;38793;52.690;6.812;2023-04-02T08:34:40;5.80;99.90
52919;DHT22;38793;52.690;6.812;2023-04-02T08:37:05;6.10;99.90
52919;DHT22;38793;52.690;6.812;2023-04-02T08:39:32;6.20;99.90
52919;DHT22;38793;52.690;6.812;2023-04-02T08:42:02;6.30;99.90
52919;DHT22;38793;52.690;6.812;2023-04-02T08:47:18;6.60;99.90
52919;DHT22;38793;52.690;6.812;2023-04-02T08:49:49;6.70;99.90
52919;DHT22;38793;52.690;6.812;2023-04-02T08:52:31;6.90;99.90
52919;DHT22;38793;52.690;6.812;2023-04-02T08:54:57;7.10;99.90
52919;DHT22;38793;52.690;6.812;2023-04-02T08:57:46;7.30;99.90
52919;DHT22;38793;52.690;6.812;2023-04-02T09:02:59;7.60;99.90
52919;DHT22;38793;52.690;6.812;2023-04-02T09:05:29;7.60;99.90
52919;DHT22;38793;52.690;6.812;2023-04-02T09:07:58;7.70;99.90
52919;DHT22;38793;52.690;6.812;2023-04-02T09:10:38;7.80;99.90
52919;DHT22;38793;52.690;6.812;2023-04-02T09:13:17;8.00;99.90
52919;DHT22;38793;52.690;6.812;2023-04-02T09:15:44;8.20;99.90
52919;DHT22;38793;52.690;6.812;2023-04-02T09:18:14;8.20;99.90
52919;DHT22;38793;52.690;6.812;2023-04-02T09:20:40;8.10;99.90
52919;DHT22;38793;52.690;6.812;2023-04-02T09:23:20;8.10;99.90
52919;DHT22;38793;52.690;6.812;2023-04-02T09:25:49;8.20;99.90
52919;DHT22;38793;52.690;6.812;2023-04-02T09:28:17;8.30;99.90
52919;DHT22;38793;52.690;6.812;2023-04-02T09:33:40;8.30;99.90
52919;DHT22;38793;52.690;6.812;2023-04-02T09:36:16;8.40;99.90
52919;DHT22;38793;52.690;6.812;2023-04-02T09:38:59;8.40;99.90
52919;DHT22;38793;52.690;6.812;2023-04-02T09:41:28;8.30;99.90
52919;DHT22;38793;52.690;6.812;2023-04-02T09:46:51;8.40;99.90
52919;DHT22;38793;52.690;6.812;2023-04-02T09:49:20;8.60;99.90
52919;DHT22;38793;52.690;6.812;2023-04-02T09:54:36;8.90;99.90
52919;DHT22;38793;52.690;6.812;2023-04-02T09:57:21;9.00;99.90
52919;DHT22;38793;52.690;6.812;2023-04-02T10:00:17;9.20;99.90
52919;DHT22;38793;52.690;6.812;2023-04-02T10:03:02;9.30;99.90
52919;DHT22;38793;52.690;6.812;2023-04-02T10:05:29;9.40;99.90
52919;DHT22;38793;52.690;6.812;2023-04-02T10:08:24;9.40;99.90
52919;DHT22;38793;52.690;6.812;2023-04-02T10:10:53;9.50;99.90
52919;DHT22;38793;52.690;6.812;2023-04-02T10:16:12;9.60;99.90
52919;DHT22;38793;52.690;6.812;2023-04-02T10:18:49;9.70;99.90
52919;DHT22;38793;52.690;6.812;2023-04-02T10:21:24;9.60;99.90
52919;DHT22;38793;52.690;6.812;2023-04-02T10:23:51;9.60;99.90
52919;DHT22;38793;52.690;6.812;2023-04-02T10:32:34;9.60;99.90
52919;DHT22;38793;52.690;6.812;2023-04-02T10:35:06;9.60;99.90
52919;DHT22;38793;52.690;6.812;2023-04-02T10:40:26;9.40;99.90
52919;DHT22;38793;52.690;6.812;2023-04-02T10:56:52;9.40;99.90
52919;DHT22;38793;52.690;6.812;2023-04-02T10:59:25;9.50;99.90
52919;DHT22;38793;52.690;6.812;2023-04-02T11:01:53;9.70;99.90
52919;DHT22;38793;52.690;6.812;2023-04-02T11:04:37;9.80;99.90
52919;DHT22;38793;52.690;6.812;2023-04-02T11:07:09;9.80;99.90
52919;DHT22;38793;52.690;6.812;2023-04-02T11:09:41;9.80;99.90
52919;DHT22;38793;52.690;6.812;2023-04-02T11:12:22;10.00;99.90
52919;DHT22;38793;52.690;6.812;2023-04-02T11:14:50;10.10;99.90
52919;DHT22;38793;52.690;6.812;2023-04-02T11:17:18;10.10;99.90
52919;DHT22;38793;52.690;6.812;2023-04-02T11:19:45;10.20;99.90
52919;DHT22;38793;52.690;6.812;2023-04-02T11:22:24;10.20;99.40
52919;DHT22;38793;52.690;6.812;2023-04-02T11:24:52;10.20;99.90
52919;DHT22;38793;52.690;6.812;2023-04-02T11:32:32;10.50;99.90
52919;DHT22;38793;52.690;6.812;2023-04-02T11:35:02;10.60;99.60
52919;DHT22;38793;52.690;6.812;2023-04-02T11:37:41;10.70;99.90
52919;DHT22;38793;52.690;6.812;2023-04-02T11:42:48;10.70;99.00
52919;DHT22;38793;52.690;6.812;2023-04-02T11:50:37;11.00;99.20
52919;DHT22;38793;52.690;6.812;2023-04-02T11:55:40;11.20;98.30
52919;DHT22;38793;52.690;6.812;2023-04-02T11:58:27;11.30;98.90
52919;DHT22;38793;52.690;6.812;2023-04-02T12:09:50;11.30;98.30
52919;DHT22;38793;52.690;6.812;2023-04-02T12:14:50;11.30;97.00
52919;DHT22;38793;52.690;6.812;2023-04-02T12:19:51;11.20;97.00
52919;DHT22;38793;52.690;6.812;2023-04-02T12:22:23;11.10;98.10
52919;DHT22;38793;52.690;6.812;2023-04-02T12:24:53;11.10;97.50
52919;DHT22;38793;52.690;6.812;2023-04-02T12:27:24;11.10;97.00
52919;DHT22;38793;52.690;6.812;2023-04-02T12:29:53;11.10;98.10
52919;DHT22;38793;52.690;6.812;2023-04-02T12:32:25;11.20;98.00
52919;DHT22;38793;52.690;6.812;2023-04-02T12:34:53;11.20;97.90
52919;DHT22;38793;52.690;6.812;2023-04-02T12:37:21;11.20;97.90
52919;DHT22;38793;52.690;6.812;2023-04-02T12:39:57;11.40;98.30
52919;DHT22;38793;52.690;6.812;2023-04-02T12:42:34;11.50;98.40
52919;DHT22;38793;52.690;6.812;2023-04-02T12:45:00;11.60;98.40
52919;DHT22;38793;52.690;6.812;2023-04-02T12:47:26;11.50;97.50
52919;DHT22;38793;52.690;6.812;2023-04-02T12:49:52;11.60;97.90
52919;DHT22;38793;52.690;6.812;2023-04-02T12:52:20;11.70;97.90
52919;DHT22;38793;52.690;6.812;2023-04-02T12:54:58;11.80;98.20
52919;DHT22;38793;52.690;6.812;2023-04-02T12:59:59;11.80;97.50
52919;DHT22;38793;52.690;6.812;2023-04-02T13:02:30;11.80;98.20
52919;DHT22;38793;52.690;6.812;2023-04-02T13:04:58;11.80;96.90
52919;DHT22;38793;52.690;6.812;2023-04-02T13:07:29;11.80;96.30
52919;DHT22;38793;52.690;6.812;2023-04-02T13:10:00;11.70;96.00
52919;DHT22;38793;52.690;6.812;2023-04-02T13:14:54;11.60;96.50
52919;DHT22;38793;52.690;6.812;2023-04-02T13:17:47;11.70;96.10
52919;DHT22;38793;52.690;6.812;2023-04-02T13:20:34;11.70;96.60
52919;DHT22;38793;52.690;6.812;2023-04-02T13:23:21;11.80;95.80
52919;DHT22;38793;52.690;6.812;2023-04-02T13:25:46;11.90;96.70
52919;DHT22;38793;52.690;6.812;2023-04-02T13:28:16;12.00;96.80
52919;DHT22;38793;52.690;6.812;2023-04-02T13:30:42;12.00;96.30
52919;DHT22;38793;52.690;6.812;2023-04-02T13:33:07;12.00;95.90
52919;DHT22;38793;52.690;6.812;2023-04-02T13:35:33;12.00;96.00
52919;DHT22;38793;52.690;6.812;2023-04-02T13:37:58;12.10;96.10
52919;DHT22;38793;52.690;6.812;2023-04-02T13:40:27;12.20;95.40
52919;DHT22;38793;52.690;6.812;2023-04-02T13:42:53;12.20;95.60
52919;DHT22;38793;52.690;6.812;2023-04-02T13:45:26;12.20;94.90
52919;DHT22;38793;52.690;6.812;2023-04-02T13:47:53;12.20;95.90
52919;DHT22;38793;52.690;6.812;2023-04-02T13:50:22;12.30;96.20
52919;DHT22;38793;52.690;6.812;2023-04-02T13:52:51;12.40;95.70
52919;DHT22;38793;52.690;6.812;2023-04-02T13:55:22;12.40;95.50
52919;DHT22;38793;52.690;6.812;2023-04-02T13:57:49;12.30;95.70
52919;DHT22;38793;52.690;6.812;2023-04-02T14:00:15;12.30;95.90
52919;DHT22;38793;52.690;6.812;2023-04-02T14:02:44;12.30;95.40
52919;DHT22;38793;52.690;6.812;2023-04-02T14:08:06;12.30;94.10
52919;DHT22;38793;52.690;6.812;2023-04-02T14:10:54;12.10;94.70
52919;DHT22;38793;52.690;6.812;2023-04-02T14:19:11;12.20;94.80
52919;DHT22;38793;52.690;6.812;2023-04-02T14:29:45;12.50;94.80
52919;DHT22;38793;52.690;6.812;2023-04-02T14:35:18;12.30;94.10
52919;DHT22;38793;52.690;6.812;2023-04-02T14:37:55;12.30;94.80
52919;DHT22;38793;52.690;6.812;2023-04-02T14:40:43;12.30;94.30
52919;DHT22;38793;52.690;6.812;2023-04-02T14:46:09;12.20;93.70
52919;DHT22;38793;52.690;6.812;2023-04-02T14:51:16;12.20;94.30
52919;DHT22;38793;52.690;6.812;2023-04-02T14:56:23;12.10;93.70
52919;DHT22;38793;52.690;6.812;2023-04-02T14:58:58;12.10;94.20
52919;DHT22;38793;52.690;6.812;2023-04-02T15:01:36;12.20;94.00
52919;DHT22;38793;52.690;6.812;2023-04-02T15:04:07;12.30;93.90
52919;DHT22;38793;52.690;6.812;2023-04-02T15:06:37;12.30;94.00
52919;DHT22;38793;52.690;6.812;2023-04-02T15:09:23;12.40;94.20
52919;DHT22;38793;52.690;6.812;2023-04-02T15:11:57;12.40;93.70
52919;DHT22;38793;52.690;6.812;2023-04-02T15:14:37;12.40;92.70
52919;DHT22;38793;52.690;6.812;2023-04-02T15:17:08;12.30;93.40
52919;DHT22;38793;52.690;6.812;2023-04-02T15:19:34;12.30;93.80
52919;DHT22;38793;52.690;6.812;2023-04-02T15:28:00;12.40;94.00
52919;DHT22;38793;52.690;6.812;2023-04-02T15:30:34;12.40;94.00
52919;DHT22;38793;52.690;6.812;2023-04-02T15:38:59;12.20;93.60
52919;DHT22;38793;52.690;6.812;2023-04-02T15:42:12;12.20;93.60
52919;DHT22;38793;52.690;6.812;2023-04-02T15:44:17;12.20;93.60
52919;DHT22;38793;52.690;6.812;2023-04-02T15:57:44;12.30;93.50
52919;DHT22;38793;52.690;6.812;2023-04-02T16:00:52;12.30;93.90
52919;DHT22;38793;52.690;6.812;2023-04-02T16:07:00;12.20;93.10
52919;DHT22;38793;52.690;6.812;2023-04-02T16:12:19;12.10;92.90
52919;DHT22;38793;52.690;6.812;2023-04-02T16:14:47;12.10;92.90
52919;DHT22;38793;52.690;6.812;2023-04-02T16:17:38;12.10;92.90
52919;DHT22;38793;52.690;6.812;2023-04-02T16:20:22;12.20;92.30
52919;DHT22;38793;52.690;6.812;2023-04-02T16:22:58;12.30;92.00
52919;DHT22;38793;52.690;6.812;2023-04-02T16:25:26;12.40;92.80
52919;DHT22;38793;52.690;6.812;2023-04-02T16:28:19;12.50;92.90
52919;DHT22;38793;52.690;6.812;2023-04-02T16:33:31;12.60;93.00
52919;DHT22;38793;52.690;6.812;2023-04-02T16:58:52;12.60;90.60
52919;DHT22;38793;52.690;6.812;2023-04-02T17:01:26;12.50;90.60
52919;DHT22;38793;52.690;6.812;2023-04-02T17:06:51;12.40;91.00
52919;DHT22;38793;52.690;6.812;2023-04-02T17:11:56;12.20;90.30
52919;DHT22;38793;52.690;6.812;2023-04-02T17:17:01;11.90;90.70
52919;DHT22;38793;52.690;6.812;2023-04-02T17:19:28;11.70;90.40
52919;DHT22;38793;52.690;6.812;2023-04-02T17:22:02;11.60;90.80
52919;DHT22;38793;52.690;6.812;2023-04-02T17:25:16;11.40;90.70
52919;DHT22;38793;52.690;6.812;2023-04-02T17:27:24;11.20;90.80
52919;DHT22;38793;52.690;6.812;2023-04-02T17:29:52;11.10;91.70
52919;DHT22;38793;52.690;6.812;2023-04-02T17:32:27;11.00;91.70
52919;DHT22;38793;52.690;6.812;2023-04-02T17:38:04;10.60;90.10
52919;DHT22;38793;52.690;6.812;2023-04-02T17:43:27;10.30;90.40
52919;DHT22;38793;52.690;6.812;2023-04-02T17:45:50;10.30;90.60
52919;DHT22;38793;52.690;6.812;2023-04-02T17:51:31;10.00;90.70
52919;DHT22;38793;52.690;6.812;2023-04-02T17:54:38;9.90;91.00
52919;DHT22;38793;52.690;6.812;2023-04-02T17:57:45;9.80;91.20
52919;DHT22;38793;52.690;6.812;2023-04-02T18:06:41;9.50;92.20
52919;DHT22;38793;52.690;6.812;2023-04-02T18:09:47;9.40;92.40
52919;DHT22;38793;52.690;6.812;2023-04-02T18:23:10;8.80;94.10
52919;DHT22;38793;52.690;6.812;2023-04-02T18:28:24;8.60;94.40
52919;DHT22;38793;52.690;6.812;2023-04-02T18:31:03;8.60;94.70
52919;DHT22;38793;52.690;6.812;2023-04-02T18:36:50;8.40;94.90
52919;DHT22;38793;52.690;6.812;2023-04-02T18:41:58;8.30;95.40
52919;DHT22;38793;52.690;6.812;2023-04-02T18:44:57;8.20;95.50
52919;DHT22;38793;52.690;6.812;2023-04-02T18:47:50;8.20;95.50
52919;DHT22;38793;52.690;6.812;2023-04-02T18:50:26;8.00;95.70
52919;DHT22;38793;52.690;6.812;2023-04-02T18:52:53;8.00;95.80
52919;DHT22;38793;52.690;6.812;2023-04-02T18:55:29;7.90;96.10
52919;DHT22;38793;52.690;6.812;2023-04-02T18:58:09;7.80;96.40
52919;DHT22;38793;52.690;6.812;2023-04-02T19:00:42;7.70;96.60
52919;DHT22;38793;52.690;6.812;2023-04-02T19:06:21;7.60;97.20
52919;DHT22;38793;52.690;6.812;2023-04-02T19:09:00;7.60;97.20
52919;DHT22;38793;52.690;6.812;2023-04-02T19:11:27;7.60;97.30
52919;DHT22;38793;52.690;6.812;2023-04-02T19:14:01;7.50;97.50
52919;DHT22;38793;52.690;6.812;2023-04-02T19:16:43;7.40;97.60
52919;DHT22;38793;52.690;6.812;2023-04-02T19:22:12;7.30;98.20
52919;DHT22;38793;52.690;6.812;2023-04-02T19:28:03;7.30;98.20
52919;DHT22;38793;52.690;6.812;2023-04-02T19:33:58;7.10;98.50
52919;DHT22;38793;52.690;6.812;2023-04-02T19:42:45;7.00;98.80
52919;DHT22;38793;52.690;6.812;2023-04-02T19:45:27;6.90;98.80
52919;DHT22;38793;52.690;6.812;2023-04-02T19:47:55;6.90;98.70
52919;DHT22;38793;52.690;6.812;2023-04-02T19:50:22;6.80;98.70
52919;DHT22;38793;52.690;6.812;2023-04-02T19:52:48;6.80;99.00
52919;DHT22;38793;52.690;6.812;2023-04-02T19:55:14;6.80;98.90
52919;DHT22;38793;52.690;6.812;2023-04-02T19:57:39;6.80;99.20
52919;DHT22;38793;52.690;6.812;2023-04-02T20:00:05;6.70;99.40
52919;DHT22;38793;52.690;6.812;2023-04-02T20:02:31;6.70;99.70
52919;DHT22;38793;52.690;6.812;2023-04-02T20:04:57;6.60;99.60
52919;DHT22;38793;52.690;6.812;2023-04-02T20:07:23;6.60;99.80
52919;DHT22;38793;52.690;6.812;2023-04-02T20:09:49;6.60;99.90
52919;DHT22;38793;52.690;6.812;2023-04-02T20:12:14;6.50;99.90
52919;DHT22;38793;52.690;6.812;2023-04-02T20:14:40;6.50;99.90
52919;DHT22;38793;52.690;6.812;2023-04-02T20:17:06;6.50;99.90
52919;DHT22;38793;52.690;6.812;2023-04-02T20:19:31;6.50;99.90
52919;DHT22;38793;52.690;6.812;2023-04-02T20:21:57;6.40;99.90
52919;DHT22;38793;52.690;6.812;2023-04-02T20:24:22;6.40;99.90
52919;DHT22;38793;52.690;6.812;2023-04-02T20:26:48;6.30;99.90
52919;DHT22;38793;52.690;6.812;2023-04-02T20:29:14;6.30;99.90
52919;DHT22;38793;52.690;6.812;2023-04-02T20:31:39;6.20;99.90
52919;DHT22;38793;52.690;6.812;2023-04-02T20:34:05;6.10;99.90
52919;DHT22;38793;52.690;6.812;2023-04-02T20:36:32;6.10;99.90
52919;DHT22;38793;52.690;6.812;2023-04-02T20:38:58;6.00;99.90
52919;DHT22;38793;52.690;6.812;2023-04-02T20:41:23;6.00;99.90
52919;DHT22;38793;52.690;6.812;2023-04-02T20:43:50;5.90;99.90
52919;DHT22;38793;52.690;6.812;2023-04-02T20:46:16;5.90;99.90
52919;DHT22;38793;52.690;6.812;2023-04-02T20:48:42;5.80;99.90
52919;DHT22;38793;52.690;6.812;2023-04-02T20:51:09;5.80;99.90
52919;DHT22;38793;52.690;6.812;2023-04-02T20:53:36;5.80;99.90